Goodland, KS (67735)

12:13 AM MDT on June 26, 2017 (GMT -0600)
City Limits Weather | | Change Station

Elev 3691 ft 39.34 °N, 101.71 °W | Updated 5 seconds ago

Overcast
Overcast
56.9 °F
Feels Like 56.9 °F
N
2.0
Wind Variable Wind from SW

Today
High -- | Low -- °F
--% Chance of Precip.
Yesterday
High -- | Low -- °F
Precip. -- in
Pressure 30.24 in
Visibility 8.0 miles
Clouds Overcast 500 ft
Dew Point 56 °F
Humidity 98%
Rainfall 0.00 in
Snow Depth Not available.
5:21 AM 8:17 PM
Waxing Crescent, 7% visible
METAR KGLD 260553Z AUTO 19005KT 8SM OVC005 14/14 A3030 RMK AO2 SLP238 T01390139 10167 20139 51008
Pressure 30.24 in
Visibility 8.0 miles
Clouds Overcast 500 ft
Dew Point 56 °F
Humidity 98%
Rainfall 0.00 in
Snow Depth Not available.
5:21 AM 8:17 PM
Waxing Crescent, 7% visible
METAR KGLD 260553Z AUTO 19005KT 8SM OVC005 14/14 A3030 RMK AO2 SLP238 T01390139 10167 20139 51008

Get Severe Weather Alerts

Thanks for signing up!

Be on the lookout for a verification email in your inbox.

You'll start receiving the daily forecast at 6 AM.

×

10-Day Weather Forecast

Almanac

Astronomy

Jun. 26, 2017 Rise Set
Actual Time
Civil Twilight
Nautical Twilight
Astronomical Twilight
Moon
Length of Visible Light
Length of Day
Tomorrow will be .
, % of the Moon is Illuminated

Today's Extremes

State Highs State Lows

Community

WunderPhotos

Category 6

Welcome to Category 6. This is the collective home for Weather Underground's featured writeups by Dr. Jeff Masters (right), Bob Henson (left), Chris Burt, and other regular contributors.

Nearby

Air Quality

  Air Quality AQ Index Pollutant
Not available.

Snow Depth

Station Depth Elevation

Earthquake Activity

City Distance Mag. Time & Date
Minimum magnitude displayed is 2.5.

Coastal Water Temperatures

Place Temperature

Stations

Nearby Weather Stations

Station Location Temp. Windchill Dew Point Humidity Wind Precip. Elev Updated Type
                   

Watches & Warnings

There are currently no watches in effect.